sensor_id;sensor_type;location;lat;lon;timestamp;P1;durP1;ratioP1;P2;durP2;ratioP2
42754;SDS011;28407;51.830;5.684;2023-09-12T00:01:08;9.50;;;7.85;;
42754;SDS011;28407;51.830;5.684;2023-09-12T00:03:08;9.23;;;6.72;;
42754;SDS011;28407;51.830;5.684;2023-09-12T00:05:09;9.30;;;7.57;;
42754;SDS011;28407;51.830;5.684;2023-09-12T00:07:12;9.98;;;8.15;;
42754;SDS011;28407;51.830;5.684;2023-09-12T00:09:13;11.35;;;9.68;;
42754;SDS011;28407;51.830;5.684;2023-09-12T00:11:16;11.45;;;8.85;;
42754;SDS011;28407;51.830;5.684;2023-09-12T00:13:17;9.48;;;7.63;;
42754;SDS011;28407;51.830;5.684;2023-09-12T00:15:17;13.00;;;9.55;;
42754;SDS011;28407;51.830;5.684;2023-09-12T00:17:19;12.07;;;8.60;;
42754;SDS011;28407;51.830;5.684;2023-09-12T00:19:20;10.73;;;9.02;;
42754;SDS011;28407;51.830;5.684;2023-09-12T00:21:21;13.73;;;9.25;;
42754;SDS011;28407;51.830;5.684;2023-09-12T00:23:21;11.10;;;8.50;;
42754;SDS011;28407;51.830;5.684;2023-09-12T00:25:23;11.18;;;8.55;;
42754;SDS011;28407;51.830;5.684;2023-09-12T00:27:24;10.77;;;8.65;;
42754;SDS011;28407;51.830;5.684;2023-09-12T00:29:24;10.88;;;8.02;;
42754;SDS011;28407;51.830;5.684;2023-09-12T00:31:25;11.40;;;9.25;;
42754;SDS011;28407;51.830;5.684;2023-09-12T00:33:26;8.90;;;7.93;;
42754;SDS011;28407;51.830;5.684;2023-09-12T00:35:26;11.73;;;8.88;;
42754;SDS011;28407;51.830;5.684;2023-09-12T00:37:27;10.77;;;8.20;;
42754;SDS011;28407;51.830;5.684;2023-09-12T00:39:27;11.10;;;8.02;;
42754;SDS011;28407;51.830;5.684;2023-09-12T00:41:28;10.23;;;7.78;;
42754;SDS011;28407;51.830;5.684;2023-09-12T00:43:28;13.00;;;9.20;;
42754;SDS011;28407;51.830;5.684;2023-09-12T00:45:29;11.00;;;8.02;;
42754;SDS011;28407;51.830;5.684;2023-09-12T00:47:30;10.15;;;8.52;;
42754;SDS011;28407;51.830;5.684;2023-09-12T00:49:31;10.80;;;8.85;;
42754;SDS011;28407;51.830;5.684;2023-09-12T00:51:33;9.95;;;8.15;;
42754;SDS011;28407;51.830;5.684;2023-09-12T00:53:34;9.52;;;7.88;;
42754;SDS011;28407;51.830;5.684;2023-09-12T00:55:35;11.02;;;8.43;;
42754;SDS011;28407;51.830;5.684;2023-09-12T00:57:38;11.50;;;9.02;;
42754;SDS011;28407;51.830;5.684;2023-09-12T00:59:39;12.87;;;9.97;;
42754;SDS011;28407;51.830;5.684;2023-09-12T01:01:39;10.45;;;7.95;;
42754;SDS011;28407;51.830;5.684;2023-09-12T01:03:40;10.20;;;8.35;;
42754;SDS011;28407;51.830;5.684;2023-09-12T01:05:42;10.32;;;8.00;;
42754;SDS011;28407;51.830;5.684;2023-09-12T01:09:44;9.07;;;7.10;;
42754;SDS011;28407;51.830;5.684;2023-09-12T01:11:45;13.80;;;8.30;;
42754;SDS011;28407;51.830;5.684;2023-09-12T01:13:46;11.73;;;8.43;;
42754;SDS011;28407;51.830;5.684;2023-09-12T01:15:46;10.27;;;8.43;;
42754;SDS011;28407;51.830;5.684;2023-09-12T01:17:47;8.95;;;7.57;;
42754;SDS011;28407;51.830;5.684;2023-09-12T01:19:48;10.20;;;8.30;;
42754;SDS011;28407;51.830;5.684;2023-09-12T01:21:57;10.07;;;7.90;;
42754;SDS011;28407;51.830;5.684;2023-09-12T01:29:22;9.43;;;7.72;;
42754;SDS011;28407;51.830;5.684;2023-09-12T01:31:23;8.68;;;7.22;;
42754;SDS011;28407;51.830;5.684;2023-09-12T01:35:26;7.95;;;6.80;;
42754;SDS011;28407;51.830;5.684;2023-09-12T01:37:26;8.60;;;6.83;;
42754;SDS011;28407;51.830;5.684;2023-09-12T01:39:27;8.80;;;6.55;;
42754;SDS011;28407;51.830;5.684;2023-09-12T01:41:28;9.15;;;7.78;;
42754;SDS011;28407;51.830;5.684;2023-09-12T01:43:31;9.38;;;6.80;;
42754;SDS011;28407;51.830;5.684;2023-09-12T01:45:35;9.07;;;7.28;;
42754;SDS011;28407;51.830;5.684;2023-09-12T01:49:39;8.95;;;7.60;;
42754;SDS011;28407;51.830;5.684;2023-09-12T01:51:43;9.10;;;6.38;;
42754;SDS011;28407;51.830;5.684;2023-09-12T01:53:43;8.23;;;6.60;;
42754;SDS011;28407;51.830;5.684;2023-09-12T01:55:45;9.75;;;7.18;;
42754;SDS011;28407;51.830;5.684;2023-09-12T01:57:47;7.72;;;6.63;;
42754;SDS011;28407;51.830;5.684;2023-09-12T01:59:48;8.00;;;6.78;;
42754;SDS011;28407;51.830;5.684;2023-09-12T02:01:50;7.40;;;6.07;;
42754;SDS011;28407;51.830;5.684;2023-09-12T02:03:51;7.43;;;6.13;;
42754;SDS011;28407;51.830;5.684;2023-09-12T02:05:51;6.32;;;5.30;;
42754;SDS011;28407;51.830;5.684;2023-09-12T02:07:52;6.68;;;5.40;;
42754;SDS011;28407;51.830;5.684;2023-09-12T02:09:53;7.07;;;5.80;;
42754;SDS011;28407;51.830;5.684;2023-09-12T02:11:53;6.47;;;5.28;;
42754;SDS011;28407;51.830;5.684;2023-09-12T02:13:54;7.70;;;5.43;;
42754;SDS011;28407;51.830;5.684;2023-09-12T02:16:01;6.05;;;4.55;;
42754;SDS011;28407;51.830;5.684;2023-09-12T02:18:04;5.63;;;4.35;;
42754;SDS011;28407;51.830;5.684;2023-09-12T02:20:08;4.68;;;3.88;;
42754;SDS011;28407;51.830;5.684;2023-09-12T02:22:09;4.32;;;3.60;;
42754;SDS011;28407;51.830;5.684;2023-09-12T02:24:10;5.18;;;3.70;;
42754;SDS011;28407;51.830;5.684;2023-09-12T02:26:11;5.60;;;3.60;;
42754;SDS011;28407;51.830;5.684;2023-09-12T02:28:11;7.55;;;4.47;;
42754;SDS011;28407;51.830;5.684;2023-09-12T02:30:12;6.82;;;4.45;;
42754;SDS011;28407;51.830;5.684;2023-09-12T02:32:13;9.75;;;4.88;;
42754;SDS011;28407;51.830;5.684;2023-09-12T02:34:14;5.97;;;4.45;;
42754;SDS011;28407;51.830;5.684;2023-09-12T02:36:14;7.03;;;5.45;;
42754;SDS011;28407;51.830;5.684;2023-09-12T02:38:16;6.78;;;5.07;;
42754;SDS011;28407;51.830;5.684;2023-09-12T02:40:17;7.55;;;6.03;;
42754;SDS011;28407;51.830;5.684;2023-09-12T02:42:19;7.93;;;6.65;;
42754;SDS011;28407;51.830;5.684;2023-09-12T02:44:19;8.52;;;6.63;;
42754;SDS011;28407;51.830;5.684;2023-09-12T02:46:20;9.23;;;6.15;;
42754;SDS011;28407;51.830;5.684;2023-09-12T02:48:21;8.32;;;6.70;;
42754;SDS011;28407;51.830;5.684;2023-09-12T02:50:21;8.75;;;6.60;;
42754;SDS011;28407;51.830;5.684;2023-09-12T02:52:22;8.85;;;6.05;;
42754;SDS011;28407;51.830;5.684;2023-09-12T02:54:23;8.52;;;7.03;;
42754;SDS011;28407;51.830;5.684;2023-09-12T02:56:23;10.98;;;6.38;;
42754;SDS011;28407;51.830;5.684;2023-09-12T02:58:24;7.70;;;6.55;;
42754;SDS011;28407;51.830;5.684;2023-09-12T03:00:25;9.23;;;7.05;;
42754;SDS011;28407;51.830;5.684;2023-09-12T03:02:25;8.60;;;7.03;;
42754;SDS011;28407;51.830;5.684;2023-09-12T03:04:29;9.43;;;7.80;;
42754;SDS011;28407;51.830;5.684;2023-09-12T03:06:30;8.40;;;7.53;;
42754;SDS011;28407;51.830;5.684;2023-09-12T03:08:31;8.93;;;6.57;;
42754;SDS011;28407;51.830;5.684;2023-09-12T03:10:32;11.10;;;7.53;;
42754;SDS011;28407;51.830;5.684;2023-09-12T03:12:32;8.95;;;7.10;;
42754;SDS011;28407;51.830;5.684;2023-09-12T03:14:33;8.98;;;6.82;;
42754;SDS011;28407;51.830;5.684;2023-09-12T03:16:34;8.52;;;7.22;;
42754;SDS011;28407;51.830;5.684;2023-09-12T03:18:36;10.68;;;8.57;;
42754;SDS011;28407;51.830;5.684;2023-09-12T03:20:40;12.38;;;8.23;;
42754;SDS011;28407;51.830;5.684;2023-09-12T03:22:40;8.30;;;6.93;;
42754;SDS011;28407;51.830;5.684;2023-09-12T03:24:41;10.75;;;7.82;;
42754;SDS011;28407;51.830;5.684;2023-09-12T03:26:42;11.38;;;6.95;;
42754;SDS011;28407;51.830;5.684;2023-09-12T03:28:43;9.40;;;7.00;;
42754;SDS011;28407;51.830;5.684;2023-09-12T03:30:44;9.15;;;7.20;;
42754;SDS011;28407;51.830;5.684;2023-09-12T03:32:44;8.57;;;7.05;;
42754;SDS011;28407;51.830;5.684;2023-09-12T03:34:45;9.90;;;6.78;;
42754;SDS011;28407;51.830;5.684;2023-09-12T03:36:46;8.48;;;7.35;;
42754;SDS011;28407;51.830;5.684;2023-09-12T03:38:46;9.13;;;7.10;;
42754;SDS011;28407;51.830;5.684;2023-09-12T03:40:48;10.40;;;7.97;;
42754;SDS011;28407;51.830;5.684;2023-09-12T03:42:49;11.57;;;8.07;;
42754;SDS011;28407;51.830;5.684;2023-09-12T03:44:50;9.18;;;7.80;;
42754;SDS011;28407;51.830;5.684;2023-09-12T03:46:51;11.88;;;8.50;;
42754;SDS011;28407;51.830;5.684;2023-09-12T03:48:51;9.68;;;7.70;;
42754;SDS011;28407;51.830;5.684;2023-09-12T03:50:53;10.75;;;8.40;;
42754;SDS011;28407;51.830;5.684;2023-09-12T03:52:53;10.38;;;7.18;;
42754;SDS011;28407;51.830;5.684;2023-09-12T03:54:54;12.45;;;8.18;;
42754;SDS011;28407;51.830;5.684;2023-09-12T03:56:54;11.07;;;8.82;;
42754;SDS011;28407;51.830;5.684;2023-09-12T03:58:55;11.43;;;8.98;;
42754;SDS011;28407;51.830;5.684;2023-09-12T04:00:58;13.13;;;8.73;;
42754;SDS011;28407;51.830;5.684;2023-09-12T04:02:58;11.07;;;8.57;;
42754;SDS011;28407;51.830;5.684;2023-09-12T04:05:00;12.23;;;8.00;;
42754;SDS011;28407;51.830;5.684;2023-09-12T04:07:00;11.55;;;8.10;;
42754;SDS011;28407;51.830;5.684;2023-09-12T04:09:01;12.75;;;8.88;;
42754;SDS011;28407;51.830;5.684;2023-09-12T04:11:02;13.68;;;10.00;;
42754;SDS011;28407;51.830;5.684;2023-09-12T04:13:02;13.32;;;9.30;;
42754;SDS011;28407;51.830;5.684;2023-09-12T04:15:03;14.27;;;9.15;;
42754;SDS011;28407;51.830;5.684;2023-09-12T04:17:04;23.53;;;9.77;;
42754;SDS011;28407;51.830;5.684;2023-09-12T04:19:05;16.38;;;8.77;;
42754;SDS011;28407;51.830;5.684;2023-09-12T04:21:06;17.38;;;9.93;;
42754;SDS011;28407;51.830;5.684;2023-09-12T04:23:06;14.52;;;9.88;;
42754;SDS011;28407;51.830;5.684;2023-09-12T04:25:07;15.57;;;9.85;;
42754;SDS011;28407;51.830;5.684;2023-09-12T04:27:08;14.15;;;10.05;;
42754;SDS011;28407;51.830;5.684;2023-09-12T04:29:09;15.68;;;11.25;;
42754;SDS011;28407;51.830;5.684;2023-09-12T04:31:10;13.77;;;9.68;;
42754;SDS011;28407;51.830;5.684;2023-09-12T04:33:11;14.48;;;10.57;;
42754;SDS011;28407;51.830;5.684;2023-09-12T04:35:12;14.90;;;10.52;;
42754;SDS011;28407;51.830;5.684;2023-09-12T04:37:13;15.27;;;11.75;;
42754;SDS011;28407;51.830;5.684;2023-09-12T04:39:14;12.55;;;10.25;;
42754;SDS011;28407;51.830;5.684;2023-09-12T04:41:14;14.02;;;12.43;;
42754;SDS011;28407;51.830;5.684;2023-09-12T04:43:17;13.32;;;10.75;;
42754;SDS011;28407;51.830;5.684;2023-09-12T04:45:17;15.18;;;11.45;;
42754;SDS011;28407;51.830;5.684;2023-09-12T04:47:18;13.95;;;11.25;;
42754;SDS011;28407;51.830;5.684;2023-09-12T04:49:18;14.52;;;12.30;;
42754;SDS011;28407;51.830;5.684;2023-09-12T04:51:20;12.88;;;10.55;;
42754;SDS011;28407;51.830;5.684;2023-09-12T04:53:20;15.02;;;11.93;;
42754;SDS011;28407;51.830;5.684;2023-09-12T04:55:21;12.35;;;10.50;;
42754;SDS011;28407;51.830;5.684;2023-09-12T04:57:21;14.15;;;11.63;;
42754;SDS011;28407;51.830;5.684;2023-09-12T04:59:22;13.48;;;10.32;;
42754;SDS011;28407;51.830;5.684;2023-09-12T05:01:23;11.82;;;10.57;;
42754;SDS011;28407;51.830;5.684;2023-09-12T05:03:25;13.48;;;10.73;;
42754;SDS011;28407;51.830;5.684;2023-09-12T05:05:26;12.98;;;10.27;;
42754;SDS011;28407;51.830;5.684;2023-09-12T05:07:26;15.15;;;11.45;;
42754;SDS011;28407;51.830;5.684;2023-09-12T05:09:27;15.88;;;11.43;;
42754;SDS011;28407;51.830;5.684;2023-09-12T05:11:28;15.50;;;11.45;;
42754;SDS011;28407;51.830;5.684;2023-09-12T05:13:29;19.70;;;12.90;;
42754;SDS011;28407;51.830;5.684;2023-09-12T05:15:30;16.00;;;11.10;;
42754;SDS011;28407;51.830;5.684;2023-09-12T05:17:30;19.02;;;12.80;;
42754;SDS011;28407;51.830;5.684;2023-09-12T05:19:31;18.13;;;12.63;;
42754;SDS011;28407;51.830;5.684;2023-09-12T05:21:32;17.00;;;12.68;;
42754;SDS011;28407;51.830;5.684;2023-09-12T05:23:32;18.20;;;12.10;;
42754;SDS011;28407;51.830;5.684;2023-09-12T05:25:33;16.13;;;12.30;;
42754;SDS011;28407;51.830;5.684;2023-09-12T05:27:34;18.33;;;13.07;;
42754;SDS011;28407;51.830;5.684;2023-09-12T05:29:35;17.42;;;12.55;;
42754;SDS011;28407;51.830;5.684;2023-09-12T05:31:36;16.85;;;12.85;;
42754;SDS011;28407;51.830;5.684;2023-09-12T05:33:37;20.90;;;14.52;;
42754;SDS011;28407;51.830;5.684;2023-09-12T05:35:37;20.25;;;13.10;;
42754;SDS011;28407;51.830;5.684;2023-09-12T05:37:38;20.60;;;12.85;;
42754;SDS011;28407;51.830;5.684;2023-09-12T05:39:39;18.05;;;12.00;;
42754;SDS011;28407;51.830;5.684;2023-09-12T05:41:39;16.58;;;12.77;;
42754;SDS011;28407;51.830;5.684;2023-09-12T05:43:40;15.27;;;11.52;;
42754;SDS011;28407;51.830;5.684;2023-09-12T05:45:40;14.20;;;11.07;;
42754;SDS011;28407;51.830;5.684;2023-09-12T05:47:41;17.05;;;12.73;;
42754;SDS011;28407;51.830;5.684;2023-09-12T05:49:42;16.65;;;12.45;;
42754;SDS011;28407;51.830;5.684;2023-09-12T05:51:42;14.10;;;11.45;;
42754;SDS011;28407;51.830;5.684;2023-09-12T05:53:43;16.55;;;11.82;;
42754;SDS011;28407;51.830;5.684;2023-09-12T05:55:44;14.30;;;11.25;;
42754;SDS011;28407;51.830;5.684;2023-09-12T05:57:45;14.90;;;11.07;;
42754;SDS011;28407;51.830;5.684;2023-09-12T05:59:47;17.75;;;12.55;;
42754;SDS011;28407;51.830;5.684;2023-09-12T06:01:48;15.23;;;11.23;;
42754;SDS011;28407;51.830;5.684;2023-09-12T06:03:49;17.40;;;12.02;;
42754;SDS011;28407;51.830;5.684;2023-09-12T06:05:49;12.18;;;9.82;;
42754;SDS011;28407;51.830;5.684;2023-09-12T06:07:50;14.90;;;10.43;;
42754;SDS011;28407;51.830;5.684;2023-09-12T06:09:51;12.13;;;9.43;;
42754;SDS011;28407;51.830;5.684;2023-09-12T06:11:52;13.18;;;10.05;;
42754;SDS011;28407;51.830;5.684;2023-09-12T06:13:52;10.82;;;8.70;;
42754;SDS011;28407;51.830;5.684;2023-09-12T06:15:53;11.30;;;9.65;;
42754;SDS011;28407;51.830;5.684;2023-09-12T06:17:53;11.82;;;9.45;;
42754;SDS011;28407;51.830;5.684;2023-09-12T06:19:55;11.50;;;8.00;;
42754;SDS011;28407;51.830;5.684;2023-09-12T06:21:56;11.35;;;8.00;;
42754;SDS011;28407;51.830;5.684;2023-09-12T06:26:35;12.73;;;8.73;;
42754;SDS011;28407;51.830;5.684;2023-09-12T06:28:37;9.68;;;7.35;;
42754;SDS011;28407;51.830;5.684;2023-09-12T06:30:37;10.27;;;7.18;;
42754;SDS011;28407;51.830;5.684;2023-09-12T06:32:38;8.80;;;6.63;;
42754;SDS011;28407;51.830;5.684;2023-09-12T06:34:38;10.73;;;7.95;;
42754;SDS011;28407;51.830;5.684;2023-09-12T06:36:39;11.65;;;7.95;;
42754;SDS011;28407;51.830;5.684;2023-09-12T06:38:41;11.45;;;8.70;;
42754;SDS011;28407;51.830;5.684;2023-09-12T06:40:45;10.25;;;9.05;;
42754;SDS011;28407;51.830;5.684;2023-09-12T06:42:47;11.45;;;8.07;;
42754;SDS011;28407;51.830;5.684;2023-09-12T06:44:47;11.30;;;8.93;;
42754;SDS011;28407;51.830;5.684;2023-09-12T06:46:48;9.43;;;6.70;;
42754;SDS011;28407;51.830;5.684;2023-09-12T06:48:49;10.75;;;7.80;;
42754;SDS011;28407;51.830;5.684;2023-09-12T06:50:53;9.77;;;8.38;;
42754;SDS011;28407;51.830;5.684;2023-09-12T06:52:54;11.85;;;7.72;;
42754;SDS011;28407;51.830;5.684;2023-09-12T06:54:55;10.23;;;8.23;;
42754;SDS011;28407;51.830;5.684;2023-09-12T06:56:55;9.55;;;7.75;;
42754;SDS011;28407;51.830;5.684;2023-09-12T06:58:56;10.57;;;7.32;;
42754;SDS011;28407;51.830;5.684;2023-09-12T07:01:01;9.82;;;7.72;;
42754;SDS011;28407;51.830;5.684;2023-09-12T07:03:05;8.65;;;6.95;;
42754;SDS011;28407;51.830;5.684;2023-09-12T07:05:06;11.02;;;7.95;;
42754;SDS011;28407;51.830;5.684;2023-09-12T07:07:07;10.60;;;7.47;;
42754;SDS011;28407;51.830;5.684;2023-09-12T07:09:08;10.57;;;8.07;;
42754;SDS011;28407;51.830;5.684;2023-09-12T07:11:08;9.77;;;7.00;;
42754;SDS011;28407;51.830;5.684;2023-09-12T07:13:09;9.95;;;7.35;;
42754;SDS011;28407;51.830;5.684;2023-09-12T07:15:10;9.02;;;6.50;;
42754;SDS011;28407;51.830;5.684;2023-09-12T07:17:10;9.75;;;7.07;;
42754;SDS011;28407;51.830;5.684;2023-09-12T07:19:11;10.57;;;7.60;;
42754;SDS011;28407;51.830;5.684;2023-09-12T07:21:12;9.13;;;7.65;;
42754;SDS011;28407;51.830;5.684;2023-09-12T07:23:12;10.95;;;7.95;;
42754;SDS011;28407;51.830;5.684;2023-09-12T07:25:13;11.57;;;7.80;;
42754;SDS011;28407;51.830;5.684;2023-09-12T07:27:14;14.07;;;8.27;;
42754;SDS011;28407;51.830;5.684;2023-09-12T07:29:15;11.30;;;8.05;;
42754;SDS011;28407;51.830;5.684;2023-09-12T07:31:15;11.32;;;7.90;;
42754;SDS011;28407;51.830;5.684;2023-09-12T07:33:16;10.27;;;7.28;;
42754;SDS011;28407;51.830;5.684;2023-09-12T07:35:17;11.70;;;7.93;;
42754;SDS011;28407;51.830;5.684;2023-09-12T07:37:17;11.23;;;7.32;;
42754;SDS011;28407;51.830;5.684;2023-09-12T07:39:18;10.35;;;8.13;;
42754;SDS011;28407;51.830;5.684;2023-09-12T07:41:21;10.73;;;8.30;;
42754;SDS011;28407;51.830;5.684;2023-09-12T07:43:21;11.30;;;8.93;;
42754;SDS011;28407;51.830;5.684;2023-09-12T07:45:22;10.18;;;7.97;;
42754;SDS011;28407;51.830;5.684;2023-09-12T07:47:22;9.95;;;7.25;;
42754;SDS011;28407;51.830;5.684;2023-09-12T07:49:23;10.75;;;8.00;;
42754;SDS011;28407;51.830;5.684;2023-09-12T07:51:26;11.85;;;8.23;;
42754;SDS011;28407;51.830;5.684;2023-09-12T07:53:26;10.77;;;7.97;;
42754;SDS011;28407;51.830;5.684;2023-09-12T07:55:27;10.45;;;7.80;;
42754;SDS011;28407;51.830;5.684;2023-09-12T07:57:30;11.27;;;8.25;;
42754;SDS011;28407;51.830;5.684;2023-09-12T07:59:31;13.25;;;8.07;;
42754;SDS011;28407;51.830;5.684;2023-09-12T08:01:33;10.48;;;7.70;;
42754;SDS011;28407;51.830;5.684;2023-09-12T08:03:34;9.52;;;6.80;;
42754;SDS011;28407;51.830;5.684;2023-09-12T08:05:36;11.15;;;8.23;;
42754;SDS011;28407;51.830;5.684;2023-09-12T08:07:36;9.55;;;6.82;;
42754;SDS011;28407;51.830;5.684;2023-09-12T08:09:56;10.43;;;6.97;;
42754;SDS011;28407;51.830;5.684;2023-09-12T08:11:58;8.88;;;6.43;;
42754;SDS011;28407;51.830;5.684;2023-09-12T08:13:58;10.13;;;7.20;;
42754;SDS011;28407;51.830;5.684;2023-09-12T08:15:59;10.85;;;7.55;;
42754;SDS011;28407;51.830;5.684;2023-09-12T08:17:59;8.43;;;6.07;;
42754;SDS011;28407;51.830;5.684;2023-09-12T08:20:00;11.18;;;6.60;;
42754;SDS011;28407;51.830;5.684;2023-09-12T08:22:01;9.35;;;6.70;;
42754;SDS011;28407;51.830;5.684;2023-09-12T08:24:02;8.33;;;5.90;;
42754;SDS011;28407;51.830;5.684;2023-09-12T08:26:03;9.95;;;6.78;;
42754;SDS011;28407;51.830;5.684;2023-09-12T08:28:04;8.20;;;5.95;;
42754;SDS011;28407;51.830;5.684;2023-09-12T08:30:04;9.40;;;6.68;;
42754;SDS011;28407;51.830;5.684;2023-09-12T08:32:05;9.23;;;6.53;;
42754;SDS011;28407;51.830;5.684;2023-09-12T08:34:06;8.77;;;6.35;;
42754;SDS011;28407;51.830;5.684;2023-09-12T08:36:07;8.23;;;6.05;;
42754;SDS011;28407;51.830;5.684;2023-09-12T08:38:07;9.60;;;5.85;;
42754;SDS011;28407;51.830;5.684;2023-09-12T08:40:09;10.60;;;6.45;;
42754;SDS011;28407;51.830;5.684;2023-09-12T08:44:15;8.40;;;5.40;;
42754;SDS011;28407;51.830;5.684;2023-09-12T08:46:16;8.32;;;5.85;;
42754;SDS011;28407;51.830;5.684;2023-09-12T08:50:21;7.03;;;5.15;;
42754;SDS011;28407;51.830;5.684;2023-09-12T08:52:26;8.63;;;5.97;;
42754;SDS011;28407;51.830;5.684;2023-09-12T08:54:27;9.75;;;6.80;;
42754;SDS011;28407;51.830;5.684;2023-09-12T08:59:26;8.25;;;5.50;;
42754;SDS011;28407;51.830;5.684;2023-09-12T09:01:29;7.05;;;5.63;;
42754;SDS011;28407;51.830;5.684;2023-09-12T09:03:30;7.78;;;5.68;;
42754;SDS011;28407;51.830;5.684;2023-09-12T09:05:32;9.98;;;6.30;;
42754;SDS011;28407;51.830;5.684;2023-09-12T09:07:41;7.60;;;5.22;;
42754;SDS011;28407;51.830;5.684;2023-09-12T09:09:42;8.73;;;5.78;;
42754;SDS011;28407;51.830;5.684;2023-09-12T09:11:43;7.87;;;5.47;;
42754;SDS011;28407;51.830;5.684;2023-09-12T09:13:44;10.80;;;6.63;;
42754;SDS011;28407;51.830;5.684;2023-09-12T09:15:44;7.25;;;5.90;;
42754;SDS011;28407;51.830;5.684;2023-09-12T09:17:45;8.00;;;5.75;;
42754;SDS011;28407;51.830;5.684;2023-09-12T09:19:46;8.88;;;6.47;;
42754;SDS011;28407;51.830;5.684;2023-09-12T09:21:47;7.03;;;4.75;;
42754;SDS011;28407;51.830;5.684;2023-09-12T09:23:48;8.25;;;5.45;;
42754;SDS011;28407;51.830;5.684;2023-09-12T09:25:51;10.77;;;5.90;;
42754;SDS011;28407;51.830;5.684;2023-09-12T09:27:53;10.75;;;5.90;;
42754;SDS011;28407;51.830;5.684;2023-09-12T09:29:54;11.90;;;6.97;;
42754;SDS011;28407;51.830;5.684;2023-09-12T09:31:55;10.52;;;8.07;;
42754;SDS011;28407;51.830;5.684;2023-09-12T09:33:55;9.95;;;6.78;;
42754;SDS011;28407;51.830;5.684;2023-09-12T09:38:05;9.23;;;6.13;;
42754;SDS011;28407;51.830;5.684;2023-09-12T09:40:06;10.32;;;6.72;;
42754;SDS011;28407;51.830;5.684;2023-09-12T09:42:10;9.93;;;6.55;;
42754;SDS011;28407;51.830;5.684;2023-09-12T09:44:11;9.20;;;6.72;;
42754;SDS011;28407;51.830;5.684;2023-09-12T09:48:20;11.00;;;7.18;;
42754;SDS011;28407;51.830;5.684;2023-09-12T09:50:22;11.13;;;7.72;;
42754;SDS011;28407;51.830;5.684;2023-09-12T09:52:26;10.93;;;8.65;;
42754;SDS011;28407;51.830;5.684;2023-09-12T09:54:28;9.73;;;7.47;;
42754;SDS011;28407;51.830;5.684;2023-09-12T09:56:28;11.35;;;8.48;;
42754;SDS011;28407;51.830;5.684;2023-09-12T09:58:30;9.60;;;7.32;;
42754;SDS011;28407;51.830;5.684;2023-09-12T10:00:31;12.43;;;7.75;;
42754;SDS011;28407;51.830;5.684;2023-09-12T10:02:35;11.73;;;8.25;;
42754;SDS011;28407;51.830;5.684;2023-09-12T10:04:38;11.13;;;8.05;;
42754;SDS011;28407;51.830;5.684;2023-09-12T10:06:44;11.52;;;9.02;;
42754;SDS011;28407;51.830;5.684;2023-09-12T10:08:49;11.13;;;7.82;;
42754;SDS011;28407;51.830;5.684;2023-09-12T10:10:51;12.38;;;8.13;;
42754;SDS011;28407;51.830;5.684;2023-09-12T10:12:55;9.33;;;6.83;;
42754;SDS011;28407;51.830;5.684;2023-09-12T10:15:00;9.32;;;6.97;;
42754;SDS011;28407;51.830;5.684;2023-09-12T10:17:01;11.20;;;6.70;;
42754;SDS011;28407;51.830;5.684;2023-09-12T10:19:13;9.00;;;6.60;;
42754;SDS011;28407;51.830;5.684;2023-09-12T10:21:18;11.43;;;7.82;;
42754;SDS011;28407;51.830;5.684;2023-09-12T10:23:31;6.80;;;4.88;;
42754;SDS011;28407;51.830;5.684;2023-09-12T10:25:37;9.13;;;6.20;;
42754;SDS011;28407;51.830;5.684;2023-09-12T10:27:40;13.07;;;8.20;;
42754;SDS011;28407;51.830;5.684;2023-09-12T10:29:41;9.53;;;7.00;;
42754;SDS011;28407;51.830;5.684;2023-09-12T10:31:41;10.68;;;6.78;;
42754;SDS011;28407;51.830;5.684;2023-09-12T10:33:43;10.90;;;6.60;;
42754;SDS011;28407;51.830;5.684;2023-09-12T10:37:45;8.07;;;5.68;;
42754;SDS011;28407;51.830;5.684;2023-09-12T10:39:48;7.90;;;5.93;;
42754;SDS011;28407;51.830;5.684;2023-09-12T10:41:50;7.35;;;5.43;;
42754;SDS011;28407;51.830;5.684;2023-09-12T10:43:52;7.88;;;5.35;;
42754;SDS011;28407;51.830;5.684;2023-09-12T10:45:53;8.88;;;4.95;;
42754;SDS011;28407;51.830;5.684;2023-09-12T10:47:56;8.98;;;5.45;;
42754;SDS011;28407;51.830;5.684;2023-09-12T10:49:57;7.17;;;4.97;;
42754;SDS011;28407;51.830;5.684;2023-09-12T10:51:57;5.50;;;4.47;;
42754;SDS011;28407;51.830;5.684;2023-09-12T10:53:58;7.50;;;5.20;;
42754;SDS011;28407;51.830;5.684;2023-09-12T10:56:00;7.18;;;5.32;;
42754;SDS011;28407;51.830;5.684;2023-09-12T10:58:15;7.35;;;4.80;;
42754;SDS011;28407;51.830;5.684;2023-09-12T11:00:15;7.40;;;4.77;;
42754;SDS011;28407;51.830;5.684;2023-09-12T11:04:32;6.95;;;4.53;;
42754;SDS011;28407;51.830;5.684;2023-09-12T11:06:34;6.93;;;4.88;;
42754;SDS011;28407;51.830;5.684;2023-09-12T11:08:35;6.17;;;4.43;;
42754;SDS011;28407;51.830;5.684;2023-09-12T11:10:37;7.80;;;5.30;;
42754;SDS011;28407;51.830;5.684;2023-09-12T11:12:38;6.53;;;4.97;;
42754;SDS011;28407;51.830;5.684;2023-09-12T11:15:02;8.05;;;4.88;;
42754;SDS011;28407;51.830;5.684;2023-09-12T11:19:17;10.10;;;4.93;;
42754;SDS011;28407;51.830;5.684;2023-09-12T11:21:23;6.55;;;3.88;;
42754;SDS011;28407;51.830;5.684;2023-09-12T11:23:32;4.70;;;3.40;;
42754;SDS011;28407;51.830;5.684;2023-09-12T11:25:34;5.85;;;4.20;;
42754;SDS011;28407;51.830;5.684;2023-09-12T11:27:45;6.35;;;4.50;;
42754;SDS011;28407;51.830;5.684;2023-09-12T11:30:04;6.25;;;4.30;;
42754;SDS011;28407;51.830;5.684;2023-09-12T11:32:06;6.43;;;4.28;;
42754;SDS011;28407;51.830;5.684;2023-09-12T11:34:10;7.57;;;4.75;;
42754;SDS011;28407;51.830;5.684;2023-09-12T11:36:12;5.78;;;4.28;;
42754;SDS011;28407;51.830;5.684;2023-09-12T11:38:14;7.85;;;4.88;;
42754;SDS011;28407;51.830;5.684;2023-09-12T11:42:33;5.78;;;5.15;;
42754;SDS011;28407;51.830;5.684;2023-09-12T11:44:39;5.82;;;3.63;;
42754;SDS011;28407;51.830;5.684;2023-09-12T11:48:42;7.13;;;4.18;;
42754;SDS011;28407;51.830;5.684;2023-09-12T11:50:43;6.10;;;4.20;;
42754;SDS011;28407;51.830;5.684;2023-09-12T11:52:50;6.18;;;3.80;;
42754;SDS011;28407;51.830;5.684;2023-09-12T11:54:57;8.48;;;4.38;;
42754;SDS011;28407;51.830;5.684;2023-09-12T11:56:58;4.70;;;3.40;;
42754;SDS011;28407;51.830;5.684;2023-09-12T11:58:59;5.80;;;4.18;;
42754;SDS011;28407;51.830;5.684;2023-09-12T12:01:00;5.35;;;3.88;;
42754;SDS011;28407;51.830;5.684;2023-09-12T12:03:01;6.77;;;4.87;;
42754;SDS011;28407;51.830;5.684;2023-09-12T12:05:02;6.40;;;3.80;;
42754;SDS011;28407;51.830;5.684;2023-09-12T12:07:04;6.82;;;4.57;;
42754;SDS011;28407;51.830;5.684;2023-09-12T12:09:05;4.80;;;3.17;;
42754;SDS011;28407;51.830;5.684;2023-09-12T12:11:06;5.10;;;3.67;;
42754;SDS011;28407;51.830;5.684;2023-09-12T12:13:20;5.23;;;3.73;;
42754;SDS011;28407;51.830;5.684;2023-09-12T12:15:21;4.53;;;2.92;;
42754;SDS011;28407;51.830;5.684;2023-09-12T12:17:22;4.17;;;2.97;;
42754;SDS011;28407;51.830;5.684;2023-09-12T12:19:22;5.17;;;3.57;;
42754;SDS011;28407;51.830;5.684;2023-09-12T12:21:23;6.50;;;3.03;;
42754;SDS011;28407;51.830;5.684;2023-09-12T12:23:24;4.47;;;2.77;;
42754;SDS011;28407;51.830;5.684;2023-09-12T12:25:26;4.30;;;2.50;;
42754;SDS011;28407;51.830;5.684;2023-09-12T12:27:27;4.97;;;2.93;;
42754;SDS011;28407;51.830;5.684;2023-09-12T12:29:28;6.60;;;3.80;;
42754;SDS011;28407;51.830;5.684;2023-09-12T12:31:29;5.45;;;3.28;;
42754;SDS011;28407;51.830;5.684;2023-09-12T12:33:30;5.63;;;3.27;;
42754;SDS011;28407;51.830;5.684;2023-09-12T12:35:31;5.13;;;4.03;;
42754;SDS011;28407;51.830;5.684;2023-09-12T12:37:32;7.13;;;4.37;;
42754;SDS011;28407;51.830;5.684;2023-09-12T12:39:32;5.07;;;3.20;;
42754;SDS011;28407;51.830;5.684;2023-09-12T12:41:34;5.77;;;2.40;;